sensor_id;sensor_type;location;lat;lon;timestamp;pressure;altitude;pressure_sealevel;temperature;humidity
60642;BME280;46837;52.446;-1.930;2023-03-18T00:00:12;98937.70;;;11.21;83.39
60642;BME280;46837;52.446;-1.930;2023-03-18T00:01:09;98936.86;;;11.22;83.46
60642;BME280;46837;52.446;-1.930;2023-03-18T00:02:09;98936.08;;;11.26;83.31
60642;BME280;46837;52.446;-1.930;2023-03-18T00:03:09;98938.64;;;11.29;83.20
60642;BME280;46837;52.446;-1.930;2023-03-18T00:04:09;98936.41;;;11.30;83.11
60642;BME280;46837;52.446;-1.930;2023-03-18T00:05:09;98940.93;;;11.30;83.09
60642;BME280;46837;52.446;-1.930;2023-03-18T00:06:14;98936.14;;;11.28;83.24
60642;BME280;46837;52.446;-1.930;2023-03-18T00:07:09;98935.81;;;11.30;83.29
60642;BME280;46837;52.446;-1.930;2023-03-18T00:08:09;98939.51;;;11.30;83.25
60642;BME280;46837;52.446;-1.930;2023-03-18T00:09:09;98943.52;;;11.31;83.32
60642;BME280;46837;52.446;-1.930;2023-03-18T00:10:09;98946.69;;;11.31;83.38
60642;BME280;46837;52.446;-1.930;2023-03-18T00:11:09;98946.75;;;11.27;83.41
60642;BME280;46837;52.446;-1.930;2023-03-18T00:12:09;98944.37;;;11.30;83.44
60642;BME280;46837;52.446;-1.930;2023-03-18T00:13:09;98944.51;;;11.30;83.39
60642;BME280;46837;52.446;-1.930;2023-03-18T00:14:09;98942.87;;;11.30;83.28
60642;BME280;46837;52.446;-1.930;2023-03-18T00:15:10;98942.95;;;11.35;83.23
60642;BME280;46837;52.446;-1.930;2023-03-18T00:16:09;98940.00;;;11.32;83.14
60642;BME280;46837;52.446;-1.930;2023-03-18T00:17:09;98945.11;;;11.30;83.46
60642;BME280;46837;52.446;-1.930;2023-03-18T00:18:09;98945.85;;;11.32;83.28
60642;BME280;46837;52.446;-1.930;2023-03-18T00:19:09;98944.11;;;11.31;83.31
60642;BME280;46837;52.446;-1.930;2023-03-18T00:20:09;98949.92;;;11.28;83.42
60642;BME280;46837;52.446;-1.930;2023-03-18T00:21:09;98947.19;;;11.28;83.56
60642;BME280;46837;52.446;-1.930;2023-03-18T00:22:09;98946.95;;;11.32;83.42
60642;BME280;46837;52.446;-1.930;2023-03-18T00:23:09;98943.81;;;11.33;83.33
60642;BME280;46837;52.446;-1.930;2023-03-18T00:24:09;98946.84;;;11.31;83.36
60642;BME280;46837;52.446;-1.930;2023-03-18T00:25:10;98945.33;;;11.30;83.47
60642;BME280;46837;52.446;-1.930;2023-03-18T00:26:09;98945.29;;;11.35;83.34
60642;BME280;46837;52.446;-1.930;2023-03-18T00:27:09;98945.88;;;11.37;83.12
60642;BME280;46837;52.446;-1.930;2023-03-18T00:28:09;98949.03;;;11.34;83.28
60642;BME280;46837;52.446;-1.930;2023-03-18T00:29:09;98952.04;;;11.34;83.27
60642;BME280;46837;52.446;-1.930;2023-03-18T00:30:09;98945.21;;;11.28;83.47
60642;BME280;46837;52.446;-1.930;2023-03-18T00:31:10;98946.19;;;11.29;83.48
60642;BME280;46837;52.446;-1.930;2023-03-18T00:32:09;98949.63;;;11.29;83.38
60642;BME280;46837;52.446;-1.930;2023-03-18T00:33:09;98944.18;;;11.28;83.41
60642;BME280;46837;52.446;-1.930;2023-03-18T00:34:09;98952.57;;;11.23;83.40
60642;BME280;46837;52.446;-1.930;2023-03-18T00:35:09;98948.79;;;11.19;83.64
60642;BME280;46837;52.446;-1.930;2023-03-18T00:36:09;98948.70;;;11.20;83.74
60642;BME280;46837;52.446;-1.930;2023-03-18T00:37:09;98949.22;;;11.22;83.58
60642;BME280;46837;52.446;-1.930;2023-03-18T00:38:09;98949.68;;;11.21;83.53
60642;BME280;46837;52.446;-1.930;2023-03-18T00:39:09;98952.16;;;11.23;83.47
60642;BME280;46837;52.446;-1.930;2023-03-18T00:40:10;98952.90;;;11.23;83.47
60642;BME280;46837;52.446;-1.930;2023-03-18T00:41:13;98949.88;;;11.24;83.40
60642;BME280;46837;52.446;-1.930;2023-03-18T00:42:12;98948.12;;;11.22;83.46
60642;BME280;46837;52.446;-1.930;2023-03-18T00:43:10;98948.78;;;11.25;83.41
60642;BME280;46837;52.446;-1.930;2023-03-18T00:44:09;98947.53;;;11.27;83.31
60642;BME280;46837;52.446;-1.930;2023-03-18T00:45:09;98945.97;;;11.26;83.38
60642;BME280;46837;52.446;-1.930;2023-03-18T00:46:09;98946.95;;;11.29;83.34
60642;BME280;46837;52.446;-1.930;2023-03-18T00:47:09;98945.10;;;11.31;83.22
60642;BME280;46837;52.446;-1.930;2023-03-18T00:48:10;98947.42;;;11.33;83.11
60642;BME280;46837;52.446;-1.930;2023-03-18T00:49:09;98949.21;;;11.30;83.15
60642;BME280;46837;52.446;-1.930;2023-03-18T00:50:09;98949.57;;;11.29;83.22
60642;BME280;46837;52.446;-1.930;2023-03-18T00:51:09;98952.36;;;11.29;83.19
60642;BME280;46837;52.446;-1.930;2023-03-18T00:52:09;98949.98;;;11.28;83.14
60642;BME280;46837;52.446;-1.930;2023-03-18T00:53:09;98949.23;;;11.23;83.31
60642;BME280;46837;52.446;-1.930;2023-03-18T00:54:11;98948.17;;;11.28;83.19
60642;BME280;46837;52.446;-1.930;2023-03-18T00:55:09;98949.54;;;11.28;83.14
60642;BME280;46837;52.446;-1.930;2023-03-18T00:56:09;98950.80;;;11.28;83.21
60642;BME280;46837;52.446;-1.930;2023-03-18T00:57:09;98952.68;;;11.32;83.14
60642;BME280;46837;52.446;-1.930;2023-03-18T00:58:09;98950.09;;;11.28;83.19
60642;BME280;46837;52.446;-1.930;2023-03-18T00:59:09;98946.87;;;11.27;83.20
60642;BME280;46837;52.446;-1.930;2023-03-18T01:00:09;98948.12;;;11.27;83.30
60642;BME280;46837;52.446;-1.930;2023-03-18T01:01:09;98948.54;;;11.29;83.14
60642;BME280;46837;52.446;-1.930;2023-03-18T01:02:09;98947.17;;;11.29;83.11
60642;BME280;46837;52.446;-1.930;2023-03-18T01:03:09;98948.87;;;11.29;83.08
60642;BME280;46837;52.446;-1.930;2023-03-18T01:04:09;98946.48;;;11.22;83.24
60642;BME280;46837;52.446;-1.930;2023-03-18T01:05:12;98948.00;;;11.23;83.37
60642;BME280;46837;52.446;-1.930;2023-03-18T01:06:09;98948.66;;;11.26;83.21
60642;BME280;46837;52.446;-1.930;2023-03-18T01:07:09;98950.03;;;11.23;83.20
60642;BME280;46837;52.446;-1.930;2023-03-18T01:08:09;98947.87;;;11.21;83.39
60642;BME280;46837;52.446;-1.930;2023-03-18T01:09:09;98951.17;;;11.15;83.63
60642;BME280;46837;52.446;-1.930;2023-03-18T01:10:12;98952.36;;;11.15;83.58
60642;BME280;46837;52.446;-1.930;2023-03-18T01:11:09;98950.19;;;11.14;83.69
60642;BME280;46837;52.446;-1.930;2023-03-18T01:12:09;98950.47;;;11.13;83.77
60642;BME280;46837;52.446;-1.930;2023-03-18T01:13:09;98950.95;;;11.15;83.67
60642;BME280;46837;52.446;-1.930;2023-03-18T01:14:09;98949.48;;;11.14;83.76
60642;BME280;46837;52.446;-1.930;2023-03-18T01:15:10;98947.38;;;11.15;83.63
60642;BME280;46837;52.446;-1.930;2023-03-18T01:16:09;98942.16;;;11.13;83.93
60642;BME280;46837;52.446;-1.930;2023-03-18T01:17:09;98944.68;;;11.13;83.99
60642;BME280;46837;52.446;-1.930;2023-03-18T01:18:09;98945.55;;;11.11;83.88
60642;BME280;46837;52.446;-1.930;2023-03-18T01:19:09;98943.66;;;11.06;83.91
60642;BME280;46837;52.446;-1.930;2023-03-18T01:20:09;98946.00;;;11.04;83.99
60642;BME280;46837;52.446;-1.930;2023-03-18T01:21:09;98949.89;;;11.04;84.08
60642;BME280;46837;52.446;-1.930;2023-03-18T01:22:09;98945.92;;;10.99;84.19
60642;BME280;46837;52.446;-1.930;2023-03-18T01:23:09;98942.80;;;10.99;84.19
60642;BME280;46837;52.446;-1.930;2023-03-18T01:24:09;98944.09;;;11.01;84.08
60642;BME280;46837;52.446;-1.930;2023-03-18T01:25:09;98943.13;;;10.97;84.11
60642;BME280;46837;52.446;-1.930;2023-03-18T01:26:09;98945.63;;;10.98;84.22
60642;BME280;46837;52.446;-1.930;2023-03-18T01:27:09;98943.83;;;10.98;84.14
60642;BME280;46837;52.446;-1.930;2023-03-18T01:28:09;98947.29;;;10.94;84.31
60642;BME280;46837;52.446;-1.930;2023-03-18T01:29:09;98943.02;;;10.94;84.46
60642;BME280;46837;52.446;-1.930;2023-03-18T01:30:09;98947.17;;;10.94;84.42
60642;BME280;46837;52.446;-1.930;2023-03-18T01:31:09;98945.44;;;10.96;84.43
60642;BME280;46837;52.446;-1.930;2023-03-18T01:32:09;98940.95;;;10.97;84.29
60642;BME280;46837;52.446;-1.930;2023-03-18T01:33:09;98942.79;;;10.98;84.29
60642;BME280;46837;52.446;-1.930;2023-03-18T01:34:09;98942.24;;;10.98;84.23
60642;BME280;46837;52.446;-1.930;2023-03-18T01:35:09;98946.11;;;11.02;84.21
60642;BME280;46837;52.446;-1.930;2023-03-18T01:36:09;98946.84;;;11.00;84.03
60642;BME280;46837;52.446;-1.930;2023-03-18T01:37:09;98947.88;;;11.03;84.13
60642;BME280;46837;52.446;-1.930;2023-03-18T01:38:09;98946.52;;;11.02;83.98
60642;BME280;46837;52.446;-1.930;2023-03-18T01:39:09;98948.14;;;11.04;83.97
60642;BME280;46837;52.446;-1.930;2023-03-18T01:40:09;98943.38;;;11.07;83.79
60642;BME280;46837;52.446;-1.930;2023-03-18T01:41:09;98945.77;;;11.08;83.76
60642;BME280;46837;52.446;-1.930;2023-03-18T01:42:09;98948.36;;;11.06;83.80
60642;BME280;46837;52.446;-1.930;2023-03-18T01:43:18;98945.63;;;11.01;83.96
60642;BME280;46837;52.446;-1.930;2023-03-18T01:44:22;98947.50;;;10.97;84.15
60642;BME280;46837;52.446;-1.930;2023-03-18T01:45:15;98942.82;;;10.96;84.32
60642;BME280;46837;52.446;-1.930;2023-03-18T01:47:09;98944.56;;;10.99;84.21
60642;BME280;46837;52.446;-1.930;2023-03-18T01:48:13;98940.68;;;10.99;84.12
60642;BME280;46837;52.446;-1.930;2023-03-18T01:50:09;98937.92;;;11.04;84.08
60642;BME280;46837;52.446;-1.930;2023-03-18T01:51:09;98937.43;;;11.06;83.93
60642;BME280;46837;52.446;-1.930;2023-03-18T01:52:17;98937.70;;;11.04;84.01
60642;BME280;46837;52.446;-1.930;2023-03-18T01:53:10;98942.30;;;11.06;83.90
60642;BME280;46837;52.446;-1.930;2023-03-18T01:54:09;98937.36;;;11.07;83.89
60642;BME280;46837;52.446;-1.930;2023-03-18T01:55:17;98934.75;;;11.03;83.97
60642;BME280;46837;52.446;-1.930;2023-03-18T01:56:09;98933.76;;;11.04;83.99
60642;BME280;46837;52.446;-1.930;2023-03-18T01:57:09;98930.21;;;11.06;83.91
60642;BME280;46837;52.446;-1.930;2023-03-18T01:59:09;98935.06;;;11.05;83.92
60642;BME280;46837;52.446;-1.930;2023-03-18T02:00:09;98935.29;;;11.07;83.95
60642;BME280;46837;52.446;-1.930;2023-03-18T02:01:17;98933.25;;;11.11;83.85
60642;BME280;46837;52.446;-1.930;2023-03-18T02:02:10;98935.00;;;11.10;83.84
60642;BME280;46837;52.446;-1.930;2023-03-18T02:03:09;98936.79;;;11.09;83.88
60642;BME280;46837;52.446;-1.930;2023-03-18T02:04:09;98934.91;;;11.06;83.91
60642;BME280;46837;52.446;-1.930;2023-03-18T02:05:11;98938.78;;;11.05;84.01
60642;BME280;46837;52.446;-1.930;2023-03-18T02:06:09;98936.32;;;11.07;83.97
60642;BME280;46837;52.446;-1.930;2023-03-18T02:07:16;98935.48;;;11.09;83.94
60642;BME280;46837;52.446;-1.930;2023-03-18T02:08:09;98936.77;;;11.07;83.92
60642;BME280;46837;52.446;-1.930;2023-03-18T02:09:09;98935.77;;;11.08;84.07
60642;BME280;46837;52.446;-1.930;2023-03-18T02:10:13;98934.46;;;11.08;84.00
60642;BME280;46837;52.446;-1.930;2023-03-18T02:11:09;98940.24;;;11.09;84.05
60642;BME280;46837;52.446;-1.930;2023-03-18T02:12:09;98938.34;;;11.08;84.07
60642;BME280;46837;52.446;-1.930;2023-03-18T02:13:09;98939.01;;;11.09;84.08
60642;BME280;46837;52.446;-1.930;2023-03-18T02:14:10;98940.84;;;11.14;84.01
60642;BME280;46837;52.446;-1.930;2023-03-18T02:15:11;98937.28;;;11.12;83.91
60642;BME280;46837;52.446;-1.930;2023-03-18T02:16:14;98939.86;;;11.14;83.99
60642;BME280;46837;52.446;-1.930;2023-03-18T02:17:11;98938.31;;;11.15;83.81
60642;BME280;46837;52.446;-1.930;2023-03-18T02:19:28;98935.52;;;11.13;83.91
60642;BME280;46837;52.446;-1.930;2023-03-18T02:22:17;98932.21;;;11.14;83.80
60642;BME280;46837;52.446;-1.930;2023-03-18T02:25:39;98934.60;;;11.17;83.69
60642;BME280;46837;52.446;-1.930;2023-03-18T02:28:10;98930.82;;;11.20;83.68
60642;BME280;46837;52.446;-1.930;2023-03-18T02:29:09;98930.16;;;11.21;83.64
60642;BME280;46837;52.446;-1.930;2023-03-18T02:30:15;98928.90;;;11.20;83.48
60642;BME280;46837;52.446;-1.930;2023-03-18T02:31:10;98927.75;;;11.20;83.51
60642;BME280;46837;52.446;-1.930;2023-03-18T02:32:09;98926.54;;;11.24;83.44
60642;BME280;46837;52.446;-1.930;2023-03-18T02:33:09;98926.96;;;11.25;83.42
60642;BME280;46837;52.446;-1.930;2023-03-18T02:34:09;98925.67;;;11.21;83.41
60642;BME280;46837;52.446;-1.930;2023-03-18T02:35:10;98925.17;;;11.24;83.48
60642;BME280;46837;52.446;-1.930;2023-03-18T02:36:13;98926.28;;;11.26;83.31
60642;BME280;46837;52.446;-1.930;2023-03-18T02:37:09;98924.67;;;11.25;83.33
60642;BME280;46837;52.446;-1.930;2023-03-18T02:38:09;98925.71;;;11.27;83.31
60642;BME280;46837;52.446;-1.930;2023-03-18T02:39:12;98928.60;;;11.25;83.27
60642;BME280;46837;52.446;-1.930;2023-03-18T02:40:23;98929.47;;;11.23;83.26
60642;BME280;46837;52.446;-1.930;2023-03-18T02:41:21;98929.35;;;11.20;83.29
60642;BME280;46837;52.446;-1.930;2023-03-18T02:42:11;98930.39;;;11.20;83.47
60642;BME280;46837;52.446;-1.930;2023-03-18T02:43:16;98929.70;;;11.22;83.46
60642;BME280;46837;52.446;-1.930;2023-03-18T02:44:10;98929.22;;;11.21;83.37
60642;BME280;46837;52.446;-1.930;2023-03-18T02:47:12;98930.13;;;11.22;83.37
60642;BME280;46837;52.446;-1.930;2023-03-18T02:48:11;98934.94;;;11.23;83.29
60642;BME280;46837;52.446;-1.930;2023-03-18T02:49:09;98932.93;;;11.21;83.24
60642;BME280;46837;52.446;-1.930;2023-03-18T02:50:09;98930.90;;;11.19;83.26
60642;BME280;46837;52.446;-1.930;2023-03-18T02:51:10;98934.87;;;11.20;83.30
60642;BME280;46837;52.446;-1.930;2023-03-18T02:52:09;98932.25;;;11.17;83.26
60642;BME280;46837;52.446;-1.930;2023-03-18T02:53:10;98932.24;;;11.20;83.40
60642;BME280;46837;52.446;-1.930;2023-03-18T02:54:13;98934.21;;;11.18;83.33
60642;BME280;46837;52.446;-1.930;2023-03-18T02:55:09;98934.86;;;11.16;83.40
60642;BME280;46837;52.446;-1.930;2023-03-18T02:56:09;98933.97;;;11.05;83.79
60642;BME280;46837;52.446;-1.930;2023-03-18T02:57:09;98935.37;;;11.12;83.82
60642;BME280;46837;52.446;-1.930;2023-03-18T02:58:10;98932.87;;;11.05;83.68
60642;BME280;46837;52.446;-1.930;2023-03-18T02:59:09;98931.67;;;11.08;83.71
60642;BME280;46837;52.446;-1.930;2023-03-18T03:00:09;98934.25;;;11.06;83.73
60642;BME280;46837;52.446;-1.930;2023-03-18T03:01:09;98935.77;;;11.05;83.64
60642;BME280;46837;52.446;-1.930;2023-03-18T03:02:09;98938.22;;;11.08;83.63
60642;BME280;46837;52.446;-1.930;2023-03-18T03:03:09;98936.97;;;11.08;83.52
60642;BME280;46837;52.446;-1.930;2023-03-18T03:04:09;98942.55;;;11.10;83.45
60642;BME280;46837;52.446;-1.930;2023-03-18T03:05:09;98939.47;;;11.09;83.35
60642;BME280;46837;52.446;-1.930;2023-03-18T03:06:09;98941.44;;;11.14;83.32
60642;BME280;46837;52.446;-1.930;2023-03-18T03:07:09;98939.45;;;11.16;83.14
60642;BME280;46837;52.446;-1.930;2023-03-18T03:08:09;98941.67;;;11.13;83.15
60642;BME280;46837;52.446;-1.930;2023-03-18T03:09:10;98938.80;;;11.13;83.33
60642;BME280;46837;52.446;-1.930;2023-03-18T03:10:09;98937.18;;;11.09;83.38
60642;BME280;46837;52.446;-1.930;2023-03-18T03:11:09;98934.45;;;11.08;83.32
60642;BME280;46837;52.446;-1.930;2023-03-18T03:12:09;98934.91;;;11.04;83.48
60642;BME280;46837;52.446;-1.930;2023-03-18T03:13:09;98929.61;;;11.04;83.62
60642;BME280;46837;52.446;-1.930;2023-03-18T03:14:09;98930.17;;;11.03;83.59
60642;BME280;46837;52.446;-1.930;2023-03-18T03:15:09;98930.66;;;11.06;83.57
60642;BME280;46837;52.446;-1.930;2023-03-18T03:16:09;98927.54;;;11.00;83.67
60642;BME280;46837;52.446;-1.930;2023-03-18T03:17:09;98929.89;;;11.00;83.80
60642;BME280;46837;52.446;-1.930;2023-03-18T03:18:09;98924.96;;;11.02;83.87
60642;BME280;46837;52.446;-1.930;2023-03-18T03:19:09;98926.45;;;10.98;83.87
60642;BME280;46837;52.446;-1.930;2023-03-18T03:20:09;98926.58;;;10.99;83.84
60642;BME280;46837;52.446;-1.930;2023-03-18T03:21:09;98926.89;;;11.00;83.83
60642;BME280;46837;52.446;-1.930;2023-03-18T03:22:09;98926.42;;;10.96;83.95
60642;BME280;46837;52.446;-1.930;2023-03-18T03:23:10;98924.36;;;10.98;84.01
60642;BME280;46837;52.446;-1.930;2023-03-18T03:24:09;98927.34;;;10.99;84.02
60642;BME280;46837;52.446;-1.930;2023-03-18T03:25:09;98929.07;;;11.01;83.93
60642;BME280;46837;52.446;-1.930;2023-03-18T03:26:09;98931.26;;;11.03;83.91
60642;BME280;46837;52.446;-1.930;2023-03-18T03:27:09;98930.10;;;11.01;84.01
60642;BME280;46837;52.446;-1.930;2023-03-18T03:28:09;98924.86;;;11.04;83.95
60642;BME280;46837;52.446;-1.930;2023-03-18T03:29:09;98927.80;;;11.07;83.88
60642;BME280;46837;52.446;-1.930;2023-03-18T03:30:09;98929.21;;;11.10;83.74
60642;BME280;46837;52.446;-1.930;2023-03-18T03:31:09;98929.98;;;11.09;83.65
60642;BME280;46837;52.446;-1.930;2023-03-18T03:32:09;98929.28;;;11.16;83.71
60642;BME280;46837;52.446;-1.930;2023-03-18T03:33:09;98931.38;;;11.12;83.59
60642;BME280;46837;52.446;-1.930;2023-03-18T03:34:09;98931.60;;;11.09;83.72
60642;BME280;46837;52.446;-1.930;2023-03-18T03:35:11;98931.22;;;11.11;83.75
60642;BME280;46837;52.446;-1.930;2023-03-18T03:36:12;98931.00;;;11.08;83.76
60642;BME280;46837;52.446;-1.930;2023-03-18T03:37:09;98932.43;;;11.13;83.77
60642;BME280;46837;52.446;-1.930;2023-03-18T03:38:09;98931.04;;;11.17;83.62
60642;BME280;46837;52.446;-1.930;2023-03-18T03:39:09;98932.48;;;11.16;83.55
60642;BME280;46837;52.446;-1.930;2023-03-18T03:40:09;98938.06;;;11.11;83.73
60642;BME280;46837;52.446;-1.930;2023-03-18T03:41:10;98937.34;;;11.09;83.90
60642;BME280;46837;52.446;-1.930;2023-03-18T03:42:09;98934.95;;;11.10;83.98
60642;BME280;46837;52.446;-1.930;2023-03-18T03:43:12;98937.35;;;11.13;83.95
60642;BME280;46837;52.446;-1.930;2023-03-18T03:44:09;98934.45;;;11.08;83.99
60642;BME280;46837;52.446;-1.930;2023-03-18T03:45:09;98937.27;;;11.03;84.32
60642;BME280;46837;52.446;-1.930;2023-03-18T03:46:09;98937.48;;;11.07;84.36
60642;BME280;46837;52.446;-1.930;2023-03-18T03:47:09;98933.19;;;10.88;84.87
60642;BME280;46837;52.446;-1.930;2023-03-18T03:48:09;98933.31;;;10.93;85.12
60642;BME280;46837;52.446;-1.930;2023-03-18T03:49:09;98936.89;;;10.95;84.91
60642;BME280;46837;52.446;-1.930;2023-03-18T03:50:09;98937.06;;;10.99;84.83
60642;BME280;46837;52.446;-1.930;2023-03-18T03:51:09;98937.88;;;10.97;84.80
60642;BME280;46837;52.446;-1.930;2023-03-18T03:52:09;98931.96;;;10.98;84.92
60642;BME280;46837;52.446;-1.930;2023-03-18T03:53:09;98933.68;;;10.99;84.83
60642;BME280;46837;52.446;-1.930;2023-03-18T03:54:10;98932.75;;;10.99;84.85
60642;BME280;46837;52.446;-1.930;2023-03-18T03:55:10;98930.27;;;11.01;84.83
60642;BME280;46837;52.446;-1.930;2023-03-18T03:56:09;98931.41;;;10.98;84.92
60642;BME280;46837;52.446;-1.930;2023-03-18T03:57:09;98933.17;;;11.03;84.89
60642;BME280;46837;52.446;-1.930;2023-03-18T03:58:09;98933.02;;;10.99;84.88
60642;BME280;46837;52.446;-1.930;2023-03-18T03:59:09;98930.93;;;11.01;84.91
60642;BME280;46837;52.446;-1.930;2023-03-18T04:00:10;98931.86;;;11.00;84.79
60642;BME280;46837;52.446;-1.930;2023-03-18T04:01:09;98932.18;;;11.01;84.79
60642;BME280;46837;52.446;-1.930;2023-03-18T04:02:09;98931.37;;;11.00;84.81
60642;BME280;46837;52.446;-1.930;2023-03-18T04:03:09;98938.27;;;10.99;84.76
60642;BME280;46837;52.446;-1.930;2023-03-18T04:04:09;98933.90;;;10.94;84.72
60642;BME280;46837;52.446;-1.930;2023-03-18T04:05:10;98938.88;;;10.96;84.96
60642;BME280;46837;52.446;-1.930;2023-03-18T04:06:09;98939.86;;;10.93;84.88
60642;BME280;46837;52.446;-1.930;2023-03-18T04:07:09;98940.91;;;10.95;84.90
60642;BME280;46837;52.446;-1.930;2023-03-18T04:08:09;98942.20;;;10.95;84.79
60642;BME280;46837;52.446;-1.930;2023-03-18T04:09:09;98942.16;;;10.93;84.86
60642;BME280;46837;52.446;-1.930;2023-03-18T04:10:09;98940.31;;;10.90;84.86
60642;BME280;46837;52.446;-1.930;2023-03-18T04:11:09;98939.15;;;10.87;85.08
60642;BME280;46837;52.446;-1.930;2023-03-18T04:12:09;98942.44;;;10.87;85.09
60642;BME280;46837;52.446;-1.930;2023-03-18T04:13:09;98940.60;;;10.85;85.14
60642;BME280;46837;52.446;-1.930;2023-03-18T04:14:09;98939.42;;;10.88;85.09
60642;BME280;46837;52.446;-1.930;2023-03-18T04:15:09;98941.73;;;10.92;84.92
60642;BME280;46837;52.446;-1.930;2023-03-18T04:16:09;98946.54;;;10.90;84.80
60642;BME280;46837;52.446;-1.930;2023-03-18T04:17:09;98947.04;;;10.89;84.98
60642;BME280;46837;52.446;-1.930;2023-03-18T04:18:09;98949.21;;;10.90;84.96
60642;BME280;46837;52.446;-1.930;2023-03-18T04:19:09;98949.05;;;10.93;84.84
60642;BME280;46837;52.446;-1.930;2023-03-18T04:20:09;98949.10;;;10.90;84.82
60642;BME280;46837;52.446;-1.930;2023-03-18T04:21:09;98948.30;;;10.85;84.97
60642;BME280;46837;52.446;-1.930;2023-03-18T04:22:09;98951.31;;;10.83;85.13
60642;BME280;46837;52.446;-1.930;2023-03-18T04:23:09;98954.47;;;10.83;85.23
60642;BME280;46837;52.446;-1.930;2023-03-18T04:24:09;98951.03;;;10.83;85.09
60642;BME280;46837;52.446;-1.930;2023-03-18T04:25:09;98954.00;;;10.82;85.16
60642;BME280;46837;52.446;-1.930;2023-03-18T04:26:09;98949.66;;;10.84;85.16
60642;BME280;46837;52.446;-1.930;2023-03-18T04:27:09;98950.97;;;10.84;85.10
60642;BME280;46837;52.446;-1.930;2023-03-18T04:28:09;98954.73;;;10.87;85.14
60642;BME280;46837;52.446;-1.930;2023-03-18T04:29:09;98956.87;;;10.87;84.94
60642;BME280;46837;52.446;-1.930;2023-03-18T04:30:09;98958.30;;;10.92;84.89
60642;BME280;46837;52.446;-1.930;2023-03-18T04:31:09;98961.88;;;10.91;84.77
60642;BME280;46837;52.446;-1.930;2023-03-18T04:32:09;98960.13;;;10.91;84.76
60642;BME280;46837;52.446;-1.930;2023-03-18T04:33:09;98959.71;;;10.93;84.63
60642;BME280;46837;52.446;-1.930;2023-03-18T04:34:09;98963.86;;;10.93;84.63
60642;BME280;46837;52.446;-1.930;2023-03-18T04:35:09;98961.50;;;10.91;84.66
60642;BME280;46837;52.446;-1.930;2023-03-18T04:36:09;98956.59;;;10.93;84.61
60642;BME280;46837;52.446;-1.930;2023-03-18T04:37:09;98957.14;;;10.90;84.47
60642;BME280;46837;52.446;-1.930;2023-03-18T04:38:09;98958.13;;;10.86;84.59
60642;BME280;46837;52.446;-1.930;2023-03-18T04:39:09;98960.71;;;10.88;84.67
60642;BME280;46837;52.446;-1.930;2023-03-18T04:40:09;98965.32;;;10.94;84.65
60642;BME280;46837;52.446;-1.930;2023-03-18T04:41:09;98968.23;;;10.93;84.47
60642;BME280;46837;52.446;-1.930;2023-03-18T04:42:09;98965.88;;;10.93;84.55
60642;BME280;46837;52.446;-1.930;2023-03-18T04:43:09;98965.87;;;10.94;84.36
60642;BME280;46837;52.446;-1.930;2023-03-18T04:44:09;98969.03;;;10.98;84.41
60642;BME280;46837;52.446;-1.930;2023-03-18T04:45:09;98967.74;;;10.99;84.27
60642;BME280;46837;52.446;-1.930;2023-03-18T04:46:09;98968.84;;;10.93;84.18
60642;BME280;46837;52.446;-1.930;2023-03-18T04:47:09;98968.57;;;10.90;84.44
60642;BME280;46837;52.446;-1.930;2023-03-18T04:48:09;98973.03;;;10.94;84.37
60642;BME280;46837;52.446;-1.930;2023-03-18T04:49:09;98974.24;;;10.94;84.37
60642;BME280;46837;52.446;-1.930;2023-03-18T04:50:09;98971.20;;;10.92;84.31
60642;BME280;46837;52.446;-1.930;2023-03-18T04:51:10;98974.28;;;10.95;84.42
60642;BME280;46837;52.446;-1.930;2023-03-18T04:52:09;98970.75;;;10.89;84.38
60642;BME280;46837;52.446;-1.930;2023-03-18T04:53:09;98972.68;;;10.92;84.46
60642;BME280;46837;52.446;-1.930;2023-03-18T04:54:09;98972.20;;;10.95;84.43
60642;BME280;46837;52.446;-1.930;2023-03-18T04:55:09;98974.69;;;10.92;84.39
60642;BME280;46837;52.446;-1.930;2023-03-18T04:56:09;98974.04;;;10.89;84.63
60642;BME280;46837;52.446;-1.930;2023-03-18T04:57:09;98980.86;;;10.93;84.77
60642;BME280;46837;52.446;-1.930;2023-03-18T04:58:09;98979.93;;;10.96;84.64
60642;BME280;46837;52.446;-1.930;2023-03-18T04:59:09;98977.14;;;10.96;84.62
60642;BME280;46837;52.446;-1.930;2023-03-18T05:00:10;98979.53;;;11.00;84.61
60642;BME280;46837;52.446;-1.930;2023-03-18T05:01:09;98981.23;;;11.02;84.52
60642;BME280;46837;52.446;-1.930;2023-03-18T05:02:09;98980.47;;;11.02;84.59
60642;BME280;46837;52.446;-1.930;2023-03-18T05:03:09;98983.00;;;11.08;84.60
60642;BME280;46837;52.446;-1.930;2023-03-18T05:04:09;98983.45;;;11.10;84.45
60642;BME280;46837;52.446;-1.930;2023-03-18T05:05:09;98984.04;;;11.14;84.33
60642;BME280;46837;52.446;-1.930;2023-03-18T05:06:10;98985.40;;;11.14;84.25
60642;BME280;46837;52.446;-1.930;2023-03-18T05:07:11;98985.88;;;11.15;84.32
60642;BME280;46837;52.446;-1.930;2023-03-18T05:08:09;98983.14;;;11.12;84.19
60642;BME280;46837;52.446;-1.930;2023-03-18T05:09:09;98981.04;;;11.13;84.37
60642;BME280;46837;52.446;-1.930;2023-03-18T05:10:09;98982.24;;;11.10;84.35
60642;BME280;46837;52.446;-1.930;2023-03-18T05:11:09;98985.16;;;11.06;84.40
60642;BME280;46837;52.446;-1.930;2023-03-18T05:12:12;98980.54;;;11.08;84.60
60642;BME280;46837;52.446;-1.930;2023-03-18T05:13:09;98982.85;;;11.10;84.52
60642;BME280;46837;52.446;-1.930;2023-03-18T05:14:09;98982.29;;;11.13;84.46
60642;BME280;46837;52.446;-1.930;2023-03-18T05:15:09;98981.84;;;11.12;84.37
60642;BME280;46837;52.446;-1.930;2023-03-18T05:16:09;98982.06;;;11.11;84.50
60642;BME280;46837;52.446;-1.930;2023-03-18T05:17:09;98983.16;;;11.08;84.59
60642;BME280;46837;52.446;-1.930;2023-03-18T05:18:09;98983.24;;;11.04;84.89
60642;BME280;46837;52.446;-1.930;2023-03-18T05:19:09;98982.05;;;10.94;85.35
60642;BME280;46837;52.446;-1.930;2023-03-18T05:20:09;98980.48;;;10.95;85.55
60642;BME280;46837;52.446;-1.930;2023-03-18T05:21:09;98975.34;;;10.92;85.42
60642;BME280;46837;52.446;-1.930;2023-03-18T05:22:09;98978.07;;;10.93;85.58
60642;BME280;46837;52.446;-1.930;2023-03-18T05:23:09;98979.36;;;10.95;85.56
60642;BME280;46837;52.446;-1.930;2023-03-18T05:24:09;98978.98;;;10.94;85.52
60642;BME280;46837;52.446;-1.930;2023-03-18T05:25:09;98977.84;;;10.91;85.68